sensor_id;sensor_type;location;lat;lon;timestamp;pressure;altitude;pressure_sealevel;temperature;humidity
6680;BME280;3376;42.664;23.346;2023-05-27T12:35:19;94499.81;;;24.56;66.29
6680;BME280;3376;42.664;23.346;2023-05-27T12:37:46;94368.75;;;23.61;70.40
6680;BME280;3376;42.664;23.346;2023-05-27T12:40:13;94495.06;;;24.58;70.15
6680;BME280;3376;42.664;23.346;2023-05-27T12:42:40;94493.47;;;24.67;67.75
6680;BME280;3376;42.664;23.346;2023-05-27T12:45:08;94478.94;;;24.79;66.86
6680;BME280;3376;42.664;23.346;2023-05-27T12:47:35;94483.22;;;24.90;66.96
6680;BME280;3376;42.664;23.346;2023-05-27T12:50:02;94470.19;;;24.79;68.15
6680;BME280;3376;42.664;23.346;2023-05-27T12:52:31;94485.00;;;24.65;69.68
6680;BME280;3376;42.664;23.346;2023-05-27T12:54:57;94350.25;;;23.76;67.72
6680;BME280;3376;42.664;23.346;2023-05-27T12:57:24;94465.91;;;24.53;67.70
6680;BME280;3376;42.664;23.346;2023-05-27T12:59:51;94472.47;;;24.35;67.76
6680;BME280;3376;42.664;23.346;2023-05-27T13:02:18;94467.22;;;24.45;68.43
6680;BME280;3376;42.664;23.346;2023-05-27T13:04:44;94454.75;;;24.35;67.89
6680;BME280;3376;42.664;23.346;2023-05-27T13:07:12;94470.13;;;24.43;64.96
6680;BME280;3376;42.664;23.346;2023-05-27T13:09:40;94463.19;;;24.22;68.41
6680;BME280;3376;42.664;23.346;2023-05-27T13:12:07;94452.03;;;24.20;68.70
6680;BME280;3376;42.664;23.346;2023-05-27T13:14:34;94444.06;;;24.10;68.78
6680;BME280;3376;42.664;23.346;2023-05-27T13:17:01;94452.25;;;24.04;70.89
6680;BME280;3376;42.664;23.346;2023-05-27T13:19:28;94444.84;;;24.01;70.83
6680;BME280;3376;42.664;23.346;2023-05-27T13:21:54;94442.22;;;24.06;71.51
6680;BME280;3376;42.664;23.346;2023-05-27T13:24:21;94448.06;;;24.13;70.13
6680;BME280;3376;42.664;23.346;2023-05-27T13:26:49;94444.38;;;24.19;69.06
6680;BME280;3376;42.664;23.346;2023-05-27T13:29:16;94437.47;;;24.13;68.22
6680;BME280;3376;42.664;23.346;2023-05-27T13:31:43;94441.84;;;23.82;69.29
6680;BME280;3376;42.664;23.346;2023-05-27T13:34:11;94439.91;;;23.68;71.23
6680;BME280;3376;42.664;23.346;2023-05-27T13:36:38;94441.25;;;23.70;69.58
6680;BME280;3376;42.664;23.346;2023-05-27T13:39:04;94425.38;;;23.70;70.21
6680;BME280;3376;42.664;23.346;2023-05-27T13:41:31;94433.41;;;23.90;69.77
6680;BME280;3376;42.664;23.346;2023-05-27T13:43:59;94424.66;;;23.90;70.89
6680;BME280;3376;42.664;23.346;2023-05-27T13:46:26;94424.47;;;24.01;70.97
6680;BME280;3376;42.664;23.346;2023-05-27T13:48:52;94418.59;;;23.94;71.58
6680;BME280;3376;42.664;23.346;2023-05-27T13:51:19;94414.09;;;23.95;73.08
6680;BME280;3376;42.664;23.346;2023-05-27T13:53:47;94408.19;;;23.26;72.21
6680;BME280;3376;42.664;23.346;2023-05-27T13:56:14;94418.22;;;22.82;72.12
6680;BME280;3376;42.664;23.346;2023-05-27T13:58:41;94408.25;;;22.58;74.79
6680;BME280;3376;42.664;23.346;2023-05-27T14:01:09;94408.13;;;22.48;76.40
6680;BME280;3376;42.664;23.346;2023-05-27T14:03:35;94394.84;;;22.64;76.58
6680;BME280;3376;42.664;23.346;2023-05-27T14:06:02;94387.63;;;22.86;75.31
6680;BME280;3376;42.664;23.346;2023-05-27T14:08:29;94409.22;;;23.20;73.53
6680;BME280;3376;42.664;23.346;2023-05-27T14:10:56;94369.25;;;23.11;70.43
6680;BME280;3376;42.664;23.346;2023-05-27T14:13:23;94407.31;;;23.52;70.91
6680;BME280;3376;42.664;23.346;2023-05-27T14:15:50;94394.59;;;23.44;70.27
6680;BME280;3376;42.664;23.346;2023-05-27T14:18:18;94396.13;;;23.35;70.64
6680;BME280;3376;42.664;23.346;2023-05-27T14:20:45;94387.34;;;23.29;69.12
6680;BME280;3376;42.664;23.346;2023-05-27T14:23:11;94391.94;;;23.44;69.36
6680;BME280;3376;42.664;23.346;2023-05-27T14:25:39;94400.22;;;23.68;67.34
6680;BME280;3376;42.664;23.346;2023-05-27T14:28:06;94398.44;;;23.83;67.31
6680;BME280;3376;42.664;23.346;2023-05-27T14:30:32;94387.84;;;23.83;68.43
6680;BME280;3376;42.664;23.346;2023-05-27T14:33:02;94405.16;;;24.01;67.32
6680;BME280;3376;42.664;23.346;2023-05-27T14:35:30;94402.25;;;24.07;65.74
6680;BME280;3376;42.664;23.346;2023-05-27T14:37:56;94396.44;;;24.15;66.28
6680;BME280;3376;42.664;23.346;2023-05-27T14:40:23;94407.03;;;24.20;64.96
6680;BME280;3376;42.664;23.346;2023-05-27T14:42:50;94297.31;;;23.61;62.44
6680;BME280;3376;42.664;23.346;2023-05-27T14:45:17;94296.00;;;23.64;63.55
6680;BME280;3376;42.664;23.346;2023-05-27T14:47:46;94403.34;;;24.26;62.84
6680;BME280;3376;42.664;23.346;2023-05-27T14:50:12;94393.81;;;24.25;63.39
6680;BME280;3376;42.664;23.346;2023-05-27T14:52:40;94393.28;;;24.23;63.98
6680;BME280;3376;42.664;23.346;2023-05-27T14:55:07;94363.06;;;24.04;63.35
6680;BME280;3376;42.664;23.346;2023-05-27T14:57:34;94393.78;;;24.20;64.20
6680;BME280;3376;42.664;23.346;2023-05-27T15:00:01;94358.00;;;23.98;63.48
6680;BME280;3376;42.664;23.346;2023-05-27T15:02:30;94382.97;;;24.22;63.73
6680;BME280;3376;42.664;23.346;2023-05-27T15:04:56;94375.03;;;24.37;62.67
6680;BME280;3376;42.664;23.346;2023-05-27T15:07:23;94385.38;;;24.43;63.79
6680;BME280;3376;42.664;23.346;2023-05-27T15:09:51;94381.66;;;24.50;65.06
6680;BME280;3376;42.664;23.346;2023-05-27T15:12:18;94381.13;;;24.42;66.48
6680;BME280;3376;42.664;23.346;2023-05-27T15:14:44;94355.69;;;24.26;68.04
6680;BME280;3376;42.664;23.346;2023-05-27T15:17:11;94365.75;;;24.50;65.75
6680;BME280;3376;42.664;23.346;2023-05-27T15:19:38;94357.03;;;24.54;65.59
6680;BME280;3376;42.664;23.346;2023-05-27T15:22:05;94353.56;;;24.49;63.44
6680;BME280;3376;42.664;23.346;2023-05-27T15:24:32;94362.06;;;24.30;62.99
6680;BME280;3376;42.664;23.346;2023-05-27T15:27:00;94151.75;;;23.11;63.61
6680;BME280;3376;42.664;23.346;2023-05-27T15:29:27;94357.81;;;24.34;64.32
6680;BME280;3376;42.664;23.346;2023-05-27T15:31:54;94353.56;;;24.28;66.59
6680;BME280;3376;42.664;23.346;2023-05-27T15:34:21;94351.47;;;24.40;65.64
6680;BME280;3376;42.664;23.346;2023-05-27T15:36:48;94356.22;;;24.54;65.09
6680;BME280;3376;42.664;23.346;2023-05-27T15:39:16;94345.09;;;24.47;65.87
6680;BME280;3376;42.664;23.346;2023-05-27T15:41:43;94353.31;;;24.60;64.18
6680;BME280;3376;42.664;23.346;2023-05-27T15:44:12;94341.41;;;24.53;61.90
6680;BME280;3376;42.664;23.346;2023-05-27T15:46:39;94344.81;;;24.63;62.59
6680;BME280;3376;42.664;23.346;2023-05-27T15:49:06;94337.16;;;24.47;63.48
6680;BME280;3376;42.664;23.346;2023-05-27T15:51:32;94313.84;;;24.28;63.20
6680;BME280;3376;42.664;23.346;2023-05-27T15:53:59;94348.53;;;24.22;64.33
6680;BME280;3376;42.664;23.346;2023-05-27T15:56:26;94334.50;;;24.16;65.95
6680;BME280;3376;42.664;23.346;2023-05-27T15:58:53;94264.50;;;23.62;67.63
6680;BME280;3376;42.664;23.346;2023-05-27T16:01:21;94349.31;;;24.17;66.54
6680;BME280;3376;42.664;23.346;2023-05-27T16:03:47;94345.91;;;24.22;71.13
6680;BME280;3376;42.664;23.346;2023-05-27T16:06:14;94343.47;;;24.15;67.43
6680;BME280;3376;42.664;23.346;2023-05-27T16:08:41;94342.44;;;24.01;66.89
6680;BME280;3376;42.664;23.346;2023-05-27T16:11:08;94353.28;;;24.10;67.36
6680;BME280;3376;42.664;23.346;2023-05-27T16:13:35;94338.44;;;23.99;64.71
6680;BME280;3376;42.664;23.346;2023-05-27T16:16:03;94360.09;;;23.91;66.14
6680;BME280;3376;42.664;23.346;2023-05-27T16:18:31;94366.13;;;23.76;68.29
6680;BME280;3376;42.664;23.346;2023-05-27T16:20:58;94366.38;;;23.70;71.65
6680;BME280;3376;42.664;23.346;2023-05-27T16:23:24;94364.03;;;23.78;68.26
6680;BME280;3376;42.664;23.346;2023-05-27T16:25:51;94366.13;;;23.76;69.90
6680;BME280;3376;42.664;23.346;2023-05-27T16:28:19;94374.31;;;23.70;69.56
6680;BME280;3376;42.664;23.346;2023-05-27T16:30:46;94375.34;;;23.64;69.53
6680;BME280;3376;42.664;23.346;2023-05-27T16:33:13;94370.28;;;23.52;74.18
6680;BME280;3376;42.664;23.346;2023-05-27T16:35:41;94381.31;;;23.34;76.33
6680;BME280;3376;42.664;23.346;2023-05-27T16:38:09;94385.97;;;23.17;78.62
6680;BME280;3376;42.664;23.346;2023-05-27T16:40:36;94389.06;;;23.09;79.79
6680;BME280;3376;42.664;23.346;2023-05-27T16:43:03;94390.91;;;23.03;80.21
6680;BME280;3376;42.664;23.346;2023-05-27T16:45:30;94389.47;;;22.86;81.80
6680;BME280;3376;42.664;23.346;2023-05-27T16:47:57;94392.47;;;22.68;82.93
6680;BME280;3376;42.664;23.346;2023-05-27T16:50:23;94378.59;;;22.51;84.03
6680;BME280;3376;42.664;23.346;2023-05-27T16:52:51;94384.59;;;22.41;85.13
6680;BME280;3376;42.664;23.346;2023-05-27T16:55:18;94401.22;;;22.42;85.75
6680;BME280;3376;42.664;23.346;2023-05-27T16:57:45;94398.44;;;22.27;85.66
6680;BME280;3376;42.664;23.346;2023-05-27T17:00:12;94408.28;;;22.09;86.72
6680;BME280;3376;42.664;23.346;2023-05-27T17:02:39;94406.22;;;21.85;88.52
6680;BME280;3376;42.664;23.346;2023-05-27T17:05:06;94415.41;;;21.82;89.81
6680;BME280;3376;42.664;23.346;2023-05-27T17:07:33;94388.22;;;21.60;90.21
6680;BME280;3376;42.664;23.346;2023-05-27T17:10:01;94412.38;;;21.52;92.30
6680;BME280;3376;42.664;23.346;2023-05-27T17:12:28;94414.16;;;21.25;93.58
6680;BME280;3376;42.664;23.346;2023-05-27T17:14:55;94404.19;;;21.11;96.22
6680;BME280;3376;42.664;23.346;2023-05-27T17:17:22;94420.31;;;21.14;96.44
6680;BME280;3376;42.664;23.346;2023-05-27T17:19:49;94409.19;;;21.12;97.80
6680;BME280;3376;42.664;23.346;2023-05-27T17:22:16;94339.75;;;20.47;98.19
6680;BME280;3376;42.664;23.346;2023-05-27T17:24:42;94428.63;;;21.06;97.97
6680;BME280;3376;42.664;23.346;2023-05-27T17:27:10;94424.75;;;20.97;99.58
6680;BME280;3376;42.664;23.346;2023-05-27T17:29:38;94422.94;;;20.97;99.91
6680;BME280;3376;42.664;23.346;2023-05-27T17:32:05;94438.09;;;20.90;100.00
6680;BME280;3376;42.664;23.346;2023-05-27T17:34:32;94435.88;;;20.82;100.00
6680;BME280;3376;42.664;23.346;2023-05-27T17:36:59;94434.19;;;20.76;100.00
6680;BME280;3376;42.664;23.346;2023-05-27T17:39:26;94448.00;;;20.67;100.00
6680;BME280;3376;42.664;23.346;2023-05-27T17:41:52;94438.56;;;20.54;100.00
6680;BME280;3376;42.664;23.346;2023-05-27T17:44:21;94463.19;;;20.48;100.00
6680;BME280;3376;42.664;23.346;2023-05-27T17:46:48;94330.81;;;19.42;100.00
6680;BME280;3376;42.664;23.346;2023-05-27T17:49:16;94466.16;;;19.96;100.00
6680;BME280;3376;42.664;23.346;2023-05-27T17:51:43;94477.97;;;19.81;100.00
6680;BME280;3376;42.664;23.346;2023-05-27T17:54:10;94461.13;;;19.66;100.00
6680;BME280;3376;42.664;23.346;2023-05-27T17:56:36;94481.00;;;19.62;100.00
6680;BME280;3376;42.664;23.346;2023-05-27T17:59:03;94484.56;;;19.44;100.00
6680;BME280;3376;42.664;23.346;2023-05-27T18:01:31;94483.88;;;19.37;100.00
6680;BME280;3376;42.664;23.346;2023-05-27T18:03:58;94458.75;;;19.18;100.00
6680;BME280;3376;42.664;23.346;2023-05-27T18:06:25;94466.63;;;19.18;100.00
6680;BME280;3376;42.664;23.346;2023-05-27T18:08:51;94374.41;;;18.57;100.00
6680;BME280;3376;42.664;23.346;2023-05-27T18:11:18;94474.03;;;19.10;100.00
6680;BME280;3376;42.664;23.346;2023-05-27T18:13:45;94468.69;;;18.93;100.00
6680;BME280;3376;42.664;23.346;2023-05-27T18:16:11;94470.03;;;18.84;100.00
6680;BME280;3376;42.664;23.346;2023-05-27T18:18:40;94464.00;;;18.84;100.00
6680;BME280;3376;42.664;23.346;2023-05-27T18:21:06;94459.28;;;18.74;100.00
6680;BME280;3376;42.664;23.346;2023-05-27T18:23:33;94469.22;;;18.72;100.00
6680;BME280;3376;42.664;23.346;2023-05-27T18:26:00;94457.91;;;18.60;100.00
6680;BME280;3376;42.664;23.346;2023-05-27T18:28:27;94476.59;;;18.52;100.00
6680;BME280;3376;42.664;23.346;2023-05-27T18:30:53;94481.16;;;18.56;100.00
6680;BME280;3376;42.664;23.346;2023-05-27T18:33:20;94488.63;;;18.59;100.00
6680;BME280;3376;42.664;23.346;2023-05-27T18:35:48;94493.28;;;18.57;100.00
6680;BME280;3376;42.664;23.346;2023-05-27T18:38:15;94494.03;;;18.46;100.00
6680;BME280;3376;42.664;23.346;2023-05-27T18:40:41;94502.03;;;18.51;100.00
6680;BME280;3376;42.664;23.346;2023-05-27T18:43:08;94495.56;;;18.54;100.00
6680;BME280;3376;42.664;23.346;2023-05-27T18:45:54;94325.72;;;17.55;100.00
6680;BME280;3376;42.664;23.346;2023-05-27T18:48:21;94490.88;;;18.56;100.00
6680;BME280;3376;42.664;23.346;2023-05-27T18:50:50;94494.38;;;18.50;100.00
6680;BME280;3376;42.664;23.346;2023-05-27T18:53:18;94497.34;;;18.42;100.00
6680;BME280;3376;42.664;23.346;2023-05-27T18:55:45;94485.59;;;18.44;100.00
6680;BME280;3376;42.664;23.346;2023-05-27T18:58:12;94499.38;;;18.40;100.00
6680;BME280;3376;42.664;23.346;2023-05-27T19:00:40;94376.88;;;17.58;100.00
6680;BME280;3376;42.664;23.346;2023-05-27T19:03:08;94500.75;;;18.13;100.00
6680;BME280;3376;42.664;23.346;2023-05-27T19:05:34;94413.63;;;17.51;100.00
6680;BME280;3376;42.664;23.346;2023-05-27T19:08:03;94557.03;;;18.28;100.00
6680;BME280;3376;42.664;23.346;2023-05-27T19:10:30;94559.19;;;18.31;100.00
6680;BME280;3376;42.664;23.346;2023-05-27T19:12:57;94574.84;;;18.38;100.00
6680;BME280;3376;42.664;23.346;2023-05-27T19:15:24;94575.97;;;18.12;100.00
6680;BME280;3376;42.664;23.346;2023-05-27T19:17:50;94581.94;;;17.65;100.00
6680;BME280;3376;42.664;23.346;2023-05-27T19:20:17;94593.97;;;17.23;100.00
6680;BME280;3376;42.664;23.346;2023-05-27T19:22:44;94586.53;;;16.65;100.00
6680;BME280;3376;42.664;23.346;2023-05-27T19:25:12;94591.28;;;16.50;100.00
6680;BME280;3376;42.664;23.346;2023-05-27T19:27:39;94594.69;;;16.50;100.00
6680;BME280;3376;42.664;23.346;2023-05-27T19:30:06;94602.56;;;16.37;100.00
6680;BME280;3376;42.664;23.346;2023-05-27T19:32:34;94591.56;;;16.22;100.00
6680;BME280;3376;42.664;23.346;2023-05-27T19:35:00;94605.25;;;16.24;100.00
6680;BME280;3376;42.664;23.346;2023-05-27T19:37:27;94584.47;;;15.91;100.00
6680;BME280;3376;42.664;23.346;2023-05-27T19:39:54;94603.75;;;15.97;100.00
6680;BME280;3376;42.664;23.346;2023-05-27T19:42:22;94607.78;;;15.86;100.00
6680;BME280;3376;42.664;23.346;2023-05-27T19:44:49;94590.16;;;15.69;100.00
6680;BME280;3376;42.664;23.346;2023-05-27T19:47:15;94588.19;;;15.51;100.00
6680;BME280;3376;42.664;23.346;2023-05-27T19:49:42;94594.81;;;15.54;100.00
6680;BME280;3376;42.664;23.346;2023-05-27T19:52:11;94581.56;;;15.49;100.00
6680;BME280;3376;42.664;23.346;2023-05-27T19:54:38;94588.97;;;15.58;100.00
6680;BME280;3376;42.664;23.346;2023-05-27T19:57:04;94588.97;;;15.52;100.00
6680;BME280;3376;42.664;23.346;2023-05-27T19:59:33;94575.50;;;15.55;100.00
6680;BME280;3376;42.664;23.346;2023-05-27T20:02:00;94564.88;;;15.63;100.00
6680;BME280;3376;42.664;23.346;2023-05-27T20:04:27;94563.25;;;15.68;100.00
6680;BME280;3376;42.664;23.346;2023-05-27T20:06:53;94568.66;;;15.73;100.00
6680;BME280;3376;42.664;23.346;2023-05-27T20:09:20;94558.03;;;15.68;100.00
6680;BME280;3376;42.664;23.346;2023-05-27T20:11:47;94564.00;;;15.82;100.00
6680;BME280;3376;42.664;23.346;2023-05-27T20:14:14;94561.97;;;15.84;100.00
6680;BME280;3376;42.664;23.346;2023-05-27T20:16:42;94560.34;;;15.89;100.00
6680;BME280;3376;42.664;23.346;2023-05-27T20:19:09;94557.31;;;15.99;100.00
6680;BME280;3376;42.664;23.346;2023-05-27T20:21:36;94542.59;;;16.04;100.00
6680;BME280;3376;42.664;23.346;2023-05-27T20:24:02;94551.00;;;16.13;100.00
6680;BME280;3376;42.664;23.346;2023-05-27T20:26:29;94548.97;;;16.15;100.00
6680;BME280;3376;42.664;23.346;2023-05-27T20:28:56;94537.75;;;16.14;100.00
6680;BME280;3376;42.664;23.346;2023-05-27T20:31:23;94544.16;;;16.12;100.00
6680;BME280;3376;42.664;23.346;2023-05-27T20:33:51;94533.69;;;16.18;100.00
6680;BME280;3376;42.664;23.346;2023-05-27T20:36:18;94540.91;;;16.23;100.00
6680;BME280;3376;42.664;23.346;2023-05-27T20:38:44;94542.13;;;16.20;100.00
6680;BME280;3376;42.664;23.346;2023-05-27T20:41:11;94534.19;;;16.33;100.00
6680;BME280;3376;42.664;23.346;2023-05-27T20:43:38;94441.22;;;15.75;100.00
6680;BME280;3376;42.664;23.346;2023-05-27T20:46:07;94526.81;;;16.24;100.00
6680;BME280;3376;42.664;23.346;2023-05-27T20:48:33;94521.50;;;16.06;100.00
6680;BME280;3376;42.664;23.346;2023-05-27T20:51:03;94536.53;;;16.10;100.00
6680;BME280;3376;42.664;23.346;2023-05-27T20:53:29;94533.13;;;16.10;100.00
6680;BME280;3376;42.664;23.346;2023-05-27T20:55:56;94526.34;;;15.96;100.00
6680;BME280;3376;42.664;23.346;2023-05-27T20:58:23;94526.00;;;15.86;100.00
6680;BME280;3376;42.664;23.346;2023-05-27T21:00:50;94524.81;;;15.82;100.00
6680;BME280;3376;42.664;23.346;2023-05-27T21:03:16;94517.34;;;15.92;100.00
6680;BME280;3376;42.664;23.346;2023-05-27T21:05:45;94524.19;;;15.86;100.00
6680;BME280;3376;42.664;23.346;2023-05-27T21:08:13;94501.34;;;15.69;100.00
6680;BME280;3376;42.664;23.346;2023-05-27T21:10:39;94515.53;;;15.86;100.00
6680;BME280;3376;42.664;23.346;2023-05-27T21:13:06;94510.31;;;15.86;100.00
6680;BME280;3376;42.664;23.346;2023-05-27T21:15:33;94518.81;;;15.75;100.00
6680;BME280;3376;42.664;23.346;2023-05-27T21:18:00;94523.22;;;15.74;100.00
6680;BME280;3376;42.664;23.346;2023-05-27T21:20:27;94503.19;;;15.68;100.00
6680;BME280;3376;42.664;23.346;2023-05-27T21:22:54;94513.97;;;15.78;100.00
6680;BME280;3376;42.664;23.346;2023-05-27T21:25:22;94516.63;;;15.72;100.00
6680;BME280;3376;42.664;23.346;2023-05-27T21:27:48;94506.78;;;15.67;100.00
6680;BME280;3376;42.664;23.346;2023-05-27T21:30:15;94528.66;;;15.73;100.00
6680;BME280;3376;42.664;23.346;2023-05-27T21:32:42;94519.88;;;15.61;100.00
6680;BME280;3376;42.664;23.346;2023-05-27T21:35:09;94504.25;;;15.48;100.00
6680;BME280;3376;42.664;23.346;2023-05-27T21:37:35;94520.50;;;15.56;100.00
6680;BME280;3376;42.664;23.346;2023-05-27T21:40:02;94499.84;;;15.42;100.00
6680;BME280;3376;42.664;23.346;2023-05-27T21:42:31;94519.53;;;15.44;100.00
6680;BME280;3376;42.664;23.346;2023-05-27T21:44:58;94527.53;;;15.49;100.00
6680;BME280;3376;42.664;23.346;2023-05-27T21:47:25;94535.16;;;15.51;100.00
6680;BME280;3376;42.664;23.346;2023-05-27T21:49:51;94504.22;;;15.34;100.00
6680;BME280;3376;42.664;23.346;2023-05-27T21:52:18;94534.34;;;15.50;100.00
6680;BME280;3376;42.664;23.346;2023-05-27T21:54:49;94503.06;;;15.24;100.00
6680;BME280;3376;42.664;23.346;2023-05-27T21:57:18;94535.75;;;15.59;100.00
6680;BME280;3376;42.664;23.346;2023-05-27T21:59:46;94524.13;;;15.49;100.00
6680;BME280;3376;42.664;23.346;2023-05-27T22:02:12;94537.53;;;15.59;100.00
6680;BME280;3376;42.664;23.346;2023-05-27T22:04:41;94528.47;;;15.68;100.00
6680;BME280;3376;42.664;23.346;2023-05-27T22:07:08;94524.25;;;15.67;100.00
6680;BME280;3376;42.664;23.346;2023-05-27T22:09:35;94512.47;;;15.51;100.00
6680;BME280;3376;42.664;23.346;2023-05-27T22:12:01;94527.88;;;15.66;100.00
6680;BME280;3376;42.664;23.346;2023-05-27T22:14:28;94530.31;;;15.61;100.00
6680;BME280;3376;42.664;23.346;2023-05-27T22:16:56;94517.25;;;15.61;100.00
6680;BME280;3376;42.664;23.346;2023-05-27T22:19:23;94517.84;;;15.63;100.00
6680;BME280;3376;42.664;23.346;2023-05-27T22:21:50;94520.66;;;15.55;100.00
6680;BME280;3376;42.664;23.346;2023-05-27T22:24:16;94521.47;;;15.55;100.00
6680;BME280;3376;42.664;23.346;2023-05-27T22:26:43;94407.63;;;14.77;100.00
6680;BME280;3376;42.664;23.346;2023-05-27T22:29:10;94515.50;;;15.42;100.00
6680;BME280;3376;42.664;23.346;2023-05-27T22:31:37;94505.88;;;15.42;100.00
6680;BME280;3376;42.664;23.346;2023-05-27T22:34:05;94493.41;;;15.44;100.00
6680;BME280;3376;42.664;23.346;2023-05-27T22:36:32;94499.22;;;15.53;100.00
6680;BME280;3376;42.664;23.346;2023-05-27T22:38:58;94497.97;;;15.55;100.00
6680;BME280;3376;42.664;23.346;2023-05-27T22:41:25;94481.31;;;15.50;100.00
6680;BME280;3376;42.664;23.346;2023-05-27T22:43:52;94501.41;;;15.56;100.00
6680;BME280;3376;42.664;23.346;2023-05-27T22:46:18;94496.16;;;15.62;100.00
6680;BME280;3376;42.664;23.346;2023-05-27T22:48:45;94491.31;;;15.66;100.00
6680;BME280;3376;42.664;23.346;2023-05-27T22:51:14;94481.31;;;15.56;100.00
6680;BME280;3376;42.664;23.346;2023-05-27T22:53:40;94492.13;;;15.66;100.00
6680;BME280;3376;42.664;23.346;2023-05-27T22:56:09;94499.53;;;15.69;100.00
6680;BME280;3376;42.664;23.346;2023-05-27T22:58:36;94475.72;;;15.53;100.00
6680;BME280;3376;42.664;23.346;2023-05-27T23:01:03;94481.69;;;15.66;100.00
6680;BME280;3376;42.664;23.346;2023-05-27T23:03:30;94446.81;;;15.48;100.00
6680;BME280;3376;42.664;23.346;2023-05-27T23:05:56;94486.88;;;15.73;100.00
6680;BME280;3376;42.664;23.346;2023-05-27T23:08:25;94486.47;;;15.69;100.00
6680;BME280;3376;42.664;23.346;2023-05-27T23:10:51;94464.44;;;15.59;100.00
6680;BME280;3376;42.664;23.346;2023-05-27T23:13:18;94488.50;;;15.67;100.00
6680;BME280;3376;42.664;23.346;2023-05-27T23:15:46;94484.69;;;15.70;100.00
6680;BME280;3376;42.664;23.346;2023-05-27T23:18:12;94471.63;;;15.70;100.00
6680;BME280;3376;42.664;23.346;2023-05-27T23:20:39;94472.97;;;15.79;100.00
6680;BME280;3376;42.664;23.346;2023-05-27T23:23:06;94448.34;;;15.68;100.00
6680;BME280;3376;42.664;23.346;2023-05-27T23:25:35;94469.56;;;15.78;100.00
6680;BME280;3376;42.664;23.346;2023-05-27T23:28:02;94455.78;;;15.65;100.00
6680;BME280;3376;42.664;23.346;2023-05-27T23:30:28;94464.78;;;15.69;100.00
6680;BME280;3376;42.664;23.346;2023-05-27T23:32:55;94458.59;;;15.57;100.00
6680;BME280;3376;42.664;23.346;2023-05-27T23:35:22;94456.66;;;15.46;100.00
6680;BME280;3376;42.664;23.346;2023-05-27T23:37:49;94461.41;;;15.55;100.00
6680;BME280;3376;42.664;23.346;2023-05-27T23:40:16;94459.19;;;15.59;100.00
6680;BME280;3376;42.664;23.346;2023-05-27T23:42:44;94468.28;;;15.50;100.00
6680;BME280;3376;42.664;23.346;2023-05-27T23:45:12;94454.47;;;15.43;100.00
6680;BME280;3376;42.664;23.346;2023-05-27T23:47:39;94472.50;;;15.51;100.00
6680;BME280;3376;42.664;23.346;2023-05-27T23:50:06;94453.19;;;15.52;100.00
6680;BME280;3376;42.664;23.346;2023-05-27T23:52:34;94446.00;;;15.47;100.00
6680;BME280;3376;42.664;23.346;2023-05-27T23:55:00;94324.59;;;14.68;100.00
6680;BME280;3376;42.664;23.346;2023-05-27T23:57:28;94444.97;;;15.48;100.00
6680;BME280;3376;42.664;23.346;2023-05-27T23:59:56;94456.22;;;15.49;100.00
